CheckWX is a tool to help pilots better visualize weather data.  It is not intended as a substitute for an official pre-flight weather briefing.

06:27:22 UTC

CYVR METAR
Vancouver International Airport
Vancouver, Canada
Current

27 mins ago

CYVR 290600Z 26002KT 20SM FEW130 SCT160 OVC240 16/15 A2991 RMK AC2AC2CI4 SLP131 DENSITY ALT 200FT
Observed
May-29 @ 06:00 UTC
Wind
  • 260° at 2 KTS
Visibility
Flight Rules
VFR
Cloud Levels
  • Few at 13,000' AGL
  • Scattered at 16,000' AGL
  • Overcast at 24,000' AGL
Temperature
16°C / 61°F
Dewpoint
15°C / 59°F
Humidity
94%
Altimeter
29.91" Hg
Pressure
1012.92 hPa
Previous

1 hour ago

CYVR 290500Z 21004KT 20SM SCT130 BKN160 BKN230 16/15 A2992 RMK AC4AC1CI2 SLP133 DENSITY ALT 100FT
Observed
May-29 @ 05:00 UTC
Wind
  • 210° at 4 KTS
Visibility
Flight Rules
VFR
Cloud Levels
  • Scattered at 13,000' AGL
  • Broken at 16,000' AGL
  • Broken at 23,000' AGL
Temperature
16°C / 61°F
Dewpoint
15°C / 59°F
Humidity
94%
Altimeter
29.92" Hg
Pressure
1013.22 hPa
Previous

2 hours ago

CYVR 290400Z 25004KT 20SM FEW160 FEW200 BKN230 16/15 A2993 RMK AC1CC1CI4 SLP135 DENSITY ALT 200FT
Observed
May-29 @ 04:00 UTC
Wind
  • 250° at 4 KTS
Visibility
Flight Rules
VFR
Cloud Levels
  • Few at 16,000' AGL
  • Few at 20,000' AGL
  • Broken at 23,000' AGL
Temperature
16°C / 61°F
Dewpoint
15°C / 59°F
Humidity
94%
Altimeter
29.93" Hg
Pressure
1013.52 hPa